Time;durP1;ratioP1;P1;durP2;ratioP2;P2;SDS_P1;SDS_P2;PMS_P1;PMS_P2;Temp;Humidity;BMP_temperature;BMP_pressure;BME280_temperature;BME280_humidity;BME280_pressure;Samples;Min_cycle;Max_cycle;Signal;HPM_P1;HPM_P2
2021/01/28 00:01:32;;;;;;;6.03;3.47;;;;;;;0.33;57.58;98325.09;4868822;29;20052;-77
2021/01/28 00:03:57;;;;;;;6.85;3.88;;;;;;;0.33;57.66;98335.59;4862403;29;20072;-77
2021/01/28 00:06:23;;;;;;;7.63;4.28;;;;;;;0.35;57.83;98340.63;4871937;29;20623;-77
2021/01/28 00:08:48;;;;;;;7.25;4.15;;;;;;;0.36;57.58;98344.88;4857110;29;20037;-78
2021/01/28 00:11:13;;;;;;;8.43;4.80;;;;;;;0.34;57.94;98345.06;4864280;29;20036;-78
2021/01/28 00:13:39;;;;;;;6.45;4.22;;;;;;;0.35;58.03;98345.91;4876617;29;20033;-76
2021/01/28 00:16:05;;;;;;;6.78;3.90;;;;;;;0.36;58.17;98343.03;4860901;29;20463;-78
2021/01/28 00:18:30;;;;;;;5.25;3.53;;;;;;;0.37;57.74;98349.91;4867511;29;20037;-79
2021/01/28 00:20:55;;;;;;;6.68;4.07;;;;;;;0.36;57.84;98353.56;4861252;29;20036;-78
2021/01/28 00:23:21;;;;;;;7.45;3.75;;;;;;;0.36;57.86;98345.66;4867270;29;20116;-78
2021/01/28 00:25:47;;;;;;;6.70;4.10;;;;;;;0.35;57.44;98354.56;4862147;29;20567;-78
2021/01/28 00:28:15;;;;;;;9.15;4.18;;;;;;;0.36;57.67;98358.03;4864069;29;20127;-78
2021/01/28 00:30:46;;;;;;;7.20;3.75;;;;;;;0.36;58.24;98356.19;4858297;29;20038;-78
2021/01/28 00:33:15;;;;;;;6.15;4.10;;;;;;;0.36;58.09;98350.13;4861773;29;20503;-77
2021/01/28 00:35:43;;;;;;;5.63;3.58;;;;;;;0.35;57.87;98354.56;4860683;29;20028;-77
2021/01/28 00:38:21;;;;;;;7.05;4.03;;;;;;;0.31;57.65;98359.47;4880052;29;20033;-75
2021/01/28 00:40:47;;;;;;;6.78;3.97;;;;;;;0.33;57.75;98359.28;4858254;29;20041;-75
2021/01/28 00:43:13;;;;;;;6.53;4.15;;;;;;;0.30;57.90;98365.78;4873296;29;20041;-75
2021/01/28 00:45:38;;;;;;;5.35;3.70;;;;;;;0.32;57.79;98361.09;4862145;29;20033;-77
2021/01/28 00:48:04;;;;;;;5.47;3.95;;;;;;;0.34;57.54;98360.84;4861261;29;20172;-77
2021/01/28 00:50:32;;;;;;;6.95;4.10;;;;;;;0.34;57.55;98365.34;4860045;29;20080;-77
2021/01/28 00:52:58;;;;;;;8.70;4.40;;;;;;;0.32;57.68;98362.94;4860388;29;20052;-77
2021/01/28 00:55:24;;;;;;;12.40;4.28;;;;;;;0.33;57.36;98359.28;4859991;29;20059;-75
2021/01/28 00:57:50;;;;;;;7.97;4.45;;;;;;;0.31;57.10;98356.84;4878134;29;21393;-77
2021/01/28 01:00:40;;;;;;;7.88;4.63;;;;;;;0.32;57.18;98365.56;4863341;29;20029;-78
2021/01/28 01:03:11;;;;;;;7.22;4.18;;;;;;;0.32;57.33;98363.72;4853750;29;20037;-78
2021/01/28 01:05:38;;;;;;;6.47;4.13;;;;;;;0.31;57.11;98364.75;4862689;29;20095;-77
2021/01/28 01:08:17;;;;;;;7.53;4.40;;;;;;;0.32;57.19;98366.34;4876821;29;20021;-78
2021/01/28 01:10:55;;;;;;;5.18;3.33;;;;;;;0.35;57.29;98372.19;4876760;29;20029;-77
2021/01/28 01:13:27;;;;;;;6.28;4.10;;;;;;;0.32;57.22;98360.31;4858669;29;20037;-78
2021/01/28 01:15:53;;;;;;;5.05;3.63;;;;;;;0.34;57.65;98352.97;4857833;29;20451;-78
2021/01/28 01:18:22;;;;;;;8.45;4.00;;;;;;;0.28;57.16;98349.44;4878383;29;20110;-77
2021/01/28 01:20:48;;;;;;;7.03;3.92;;;;;;;0.30;56.96;98347.34;4859026;29;20025;-77
2021/01/28 01:23:14;;;;;;;9.32;4.22;;;;;;;0.30;57.97;98351.81;4875977;29;20025;-77
2021/01/28 01:25:39;;;;;;;5.68;3.67;;;;;;;0.30;57.81;98357.09;4859545;29;20645;-76
2021/01/28 01:28:05;;;;;;;7.45;4.65;;;;;;;0.28;57.22;98357.31;4875304;29;20064;-77
2021/01/28 01:30:31;;;;;;;7.45;4.40;;;;;;;0.28;58.05;98367.03;4858993;29;20509;-76
2021/01/28 01:32:57;;;;;;;12.50;4.22;;;;;;;0.27;58.14;98360.16;4886349;29;20048;-75
2021/01/28 01:35:24;;;;;;;6.10;4.20;;;;;;;0.26;57.96;98356.75;4897453;29;20025;-75
2021/01/28 01:37:51;;;;;;;6.82;4.20;;;;;;;0.25;58.19;98356.97;4878899;29;20029;-78
2021/01/28 01:40:22;;;;;;;7.03;4.53;;;;;;;0.22;57.75;98350.34;4875986;29;20557;-78
2021/01/28 01:42:49;;;;;;;7.43;4.90;;;;;;;0.21;58.10;98358.44;4880997;29;20092;-78
2021/01/28 01:45:17;;;;;;;5.72;4.43;;;;;;;0.20;58.32;98352.38;4887530;29;20052;-78
2021/01/28 01:47:45;;;;;;;7.63;4.20;;;;;;;0.15;57.83;98358.31;4885712;29;20112;-78
2021/01/28 01:50:34;;;;;;;8.00;4.82;;;;;;;0.19;58.58;98365.75;4880725;29;20036;-78
2021/01/28 01:53:00;;;;;;;;;;;;;;;0.17;58.39;98370.44;4883172;29;20025;-78
2021/01/28 01:55:28;;;;;;;6.45;3.80;;;;;;;0.12;58.08;98366.66;4879426;29;19911;-78
2021/01/28 01:57:56;;;;;;;9.95;4.95;;;;;;;0.11;58.46;98367.69;4885651;29;20039;-77
2021/01/28 02:00:22;;;;;;;8.85;3.78;;;;;;;0.09;58.32;98369.72;4882281;29;20032;-77
2021/01/28 02:02:55;;;;;;;11.23;4.78;;;;;;;0.06;58.61;98372.81;4883438;29;20020;-77
2021/01/28 02:05:33;;;;;;;9.85;4.97;;;;;;;0.08;58.33;98375.22;4898426;29;20033;-78
2021/01/28 02:08:00;;;;;;;7.85;4.10;;;;;;;0.06;58.66;98382.50;4881656;29;20116;-76
2021/01/28 02:10:26;;;;;;;7.13;3.65;;;;;;;0.05;58.92;98386.97;4879672;29;20036;-79
2021/01/28 02:12:52;;;;;;;9.40;4.68;;;;;;;0.07;58.40;98390.16;4885036;29;20119;-77
2021/01/28 02:15:20;;;;;;;7.30;3.90;;;;;;;0.06;58.17;98388.59;4885410;29;20033;-77
2021/01/28 02:17:51;;;;;;;7.47;4.10;;;;;;;0.07;58.41;98398.06;4884603;29;20031;-77
2021/01/28 02:20:28;;;;;;;7.53;4.90;;;;;;;0.07;58.55;98392.81;4881011;29;20123;-77
2021/01/28 02:23:11;;;;;;;6.65;4.43;;;;;;;0.05;58.82;98401.94;4879478;29;20063;-77
2021/01/28 02:25:38;;;;;;;6.07;4.38;;;;;;;0.05;58.55;98394.88;4881017;29;20016;-78
2021/01/28 02:28:07;;;;;;;9.38;4.18;;;;;;;0.06;58.51;98387.78;4884627;29;20028;-78
2021/01/28 02:30:34;;;;;;;7.70;4.43;;;;;;;0.04;58.27;98409.03;4880892;29;20056;-78
2021/01/28 02:33:00;;;;;;;8.35;5.05;;;;;;;0.01;58.48;98395.53;4882259;29;20044;-78
2021/01/28 02:35:30;;;;;;;8.90;5.10;;;;;;;0.03;58.72;98399.53;4881570;29;20036;-78
2021/01/28 02:37:57;;;;;;;6.45;4.10;;;;;;;0.02;58.16;98397.16;4877864;29;20092;-79
2021/01/28 02:40:25;;;;;;;7.68;4.65;;;;;;;-0.03;58.41;98389.91;4877743;29;20024;-79
2021/01/28 02:42:51;;;;;;;7.45;3.97;;;;;;;-0.03;58.38;98400.44;4881620;29;20036;-79
2021/01/28 02:45:33;;;;;;;6.60;3.85;;;;;;;-0.03;58.61;98403.06;4881622;29;20044;-77
2021/01/28 02:48:03;;;;;;;7.22;5.07;;;;;;;-0.03;58.78;98408.31;4881215;29;20493;-80
2021/01/28 02:50:29;;;;;;;8.00;4.80;;;;;;;-0.04;58.48;98409.34;4880088;29;20047;-79
2021/01/28 02:52:57;;;;;;;8.18;4.70;;;;;;;-0.04;58.41;98409.34;4900332;29;20032;-79
2021/01/28 02:55:25;;;;;;;8.93;4.72;;;;;;;-0.06;58.74;98406.13;4877964;29;20382;-80
2021/01/28 02:58:00;;;;;;;6.18;3.97;;;;;;;-0.03;58.65;98410.94;4867061;29;20045;-81
2021/01/28 03:00:32;;;;;;;6.05;4.25;;;;;;;-0.05;58.96;98410.34;4893477;29;20033;-81
2021/01/28 03:03:08;;;;;;;9.48;4.35;;;;;;;-0.07;59.23;98407.16;4896521;29;20482;-79
2021/01/28 03:05:33;;;;;;;9.82;4.70;;;;;;;-0.08;58.78;98416.06;4902146;29;20020;-78
2021/01/28 03:07:59;;;;;;;9.10;5.00;;;;;;;-0.06;59.17;98414.00;4881955;29;20040;-78
2021/01/28 03:10:25;;;;;;;8.27;4.30;;;;;;;-0.08;59.08;98411.59;4878561;29;20021;-79
2021/01/28 03:12:51;;;;;;;9.55;4.60;;;;;;;-0.10;59.00;98403.13;4880384;29;20044;-79
2021/01/28 03:15:20;;;;;;;4.15;3.47;;;;;;;-0.08;58.79;98408.97;4896082;29;20032;-78
2021/01/28 03:17:45;;;;;;;8.35;4.32;;;;;;;-0.08;58.70;98401.09;4900445;29;20123;-78
2021/01/28 03:20:12;;;;;;;7.43;3.80;;;;;;;-0.08;58.56;98408.97;4900102;29;20051;-79
2021/01/28 03:22:38;;;;;;;6.18;4.25;;;;;;;-0.09;58.82;98409.22;4888056;29;20500;-78
2021/01/28 03:25:05;;;;;;;8.77;4.30;;;;;;;-0.10;58.40;98413.66;4867407;29;20037;-78
2021/01/28 03:27:31;;;;;;;7.97;4.53;;;;;;;-0.10;58.09;98418.91;4881251;29;20064;-78
2021/01/28 03:29:56;;;;;;;7.80;4.55;;;;;;;-0.10;58.30;98426.00;4881048;29;20067;-78
2021/01/28 03:32:22;;;;;;;7.43;5.00;;;;;;;-0.12;58.39;98423.59;4880852;29;20144;-80
2021/01/28 03:34:47;;;;;;;7.80;4.70;;;;;;;-0.11;58.71;98424.38;4881736;29;20039;-78
2021/01/28 03:37:12;;;;;;;5.72;3.67;;;;;;;-0.09;58.30;98419.72;4875167;29;20466;-79
2021/01/28 03:39:38;;;;;;;8.27;4.20;;;;;;;-0.10;58.31;98421.53;4884872;29;20028;-79
2021/01/28 03:42:03;;;;;;;9.17;4.43;;;;;;;-0.10;58.38;98415.47;4887932;29;20095;-79
2021/01/28 03:44:29;;;;;;;8.20;4.30;;;;;;;-0.10;58.48;98418.13;4886370;29;20028;-79
2021/01/28 03:46:54;;;;;;;8.07;4.60;;;;;;;-0.10;58.58;98418.91;4900071;29;20110;-78
2021/01/28 03:49:19;;;;;;;7.22;4.53;;;;;;;-0.09;58.50;98417.09;4878935;29;20111;-78
2021/01/28 03:51:45;;;;;;;9.83;4.80;;;;;;;-0.11;57.93;98412.06;4902727;29;20024;-77
2021/01/28 03:54:10;;;;;;;8.68;4.35;;;;;;;-0.11;58.27;98412.06;4886913;29;20169;-78
2021/01/28 03:56:36;;;;;;;8.00;4.80;;;;;;;-0.11;58.32;98413.88;4878780;29;20036;-79
2021/01/28 03:59:01;;;;;;;7.22;4.78;;;;;;;-0.11;58.80;98430.47;4881448;29;20017;-79
2021/01/28 04:01:26;;;;;;;9.07;3.95;;;;;;;-0.12;58.40;98422.78;4882802;29;21914;-77
2021/01/28 04:03:52;;;;;;;7.55;4.55;;;;;;;-0.11;58.39;98419.13;4916850;29;20024;-77
2021/01/28 04:06:25;;;;;;;7.38;4.28;;;;;;;-0.13;58.68;98426.47;4928551;29;20071;-83
2021/01/28 04:08:51;;;;;;;7.70;5.15;;;;;;;-0.13;58.48;98429.88;4893938;29;20056;-76
2021/01/28 04:11:16;;;;;;;5.28;3.92;;;;;;;-0.14;58.31;98430.09;4905782;29;20420;-75
2021/01/28 04:13:41;;;;;;;5.75;4.07;;;;;;;-0.15;58.11;98437.16;4899084;29;20497;-77
2021/01/28 04:16:07;;;;;;;8.80;4.40;;;;;;;-0.15;58.29;98436.38;4896043;29;20036;-76
2021/01/28 04:18:32;;;;;;;9.73;5.25;;;;;;;-0.18;58.02;98438.41;4906813;29;20035;-76
2021/01/28 04:20:58;;;;;;;6.03;4.30;;;;;;;-0.21;58.17;98436.25;4915984;29;20405;-77
2021/01/28 04:23:23;;;;;;;6.13;4.28;;;;;;;-0.22;58.39;98437.25;4881878;29;20367;-77
2021/01/28 04:25:48;;;;;;;10.82;4.53;;;;;;;-0.23;57.82;98434.84;4881448;29;20027;-76
2021/01/28 04:28:14;;;;;;;8.35;4.93;;;;;;;-0.24;57.83;98441.13;4880636;29;20028;-76
2021/01/28 04:30:39;;;;;;;7.50;4.78;;;;;;;-0.27;58.23;98442.38;4896643;29;20107;-79
2021/01/28 04:33:06;;;;;;;10.80;5.78;;;;;;;-0.28;57.90;98447.84;4892480;29;20580;-77
2021/01/28 04:35:32;;;;;;;8.32;4.90;;;;;;;-0.29;57.88;98454.94;4916266;29;20577;-78
2021/01/28 04:37:58;;;;;;;8.93;4.45;;;;;;;-0.28;57.96;98453.09;4912371;29;20103;-78
2021/01/28 04:40:29;;;;;;;9.50;4.57;;;;;;;-0.29;57.94;98454.09;4876896;29;20123;-77
2021/01/28 04:42:56;;;;;;;8.20;4.40;;;;;;;-0.35;58.09;98461.84;4903161;29;20115;-76
2021/01/28 04:45:24;;;;;;;8.57;4.57;;;;;;;-0.34;57.92;98460.03;4883299;29;20131;-76
2021/01/28 04:48:03;;;;;;;8.02;4.80;;;;;;;-0.34;57.65;98462.69;4898784;29;20051;-76
2021/01/28 04:50:34;;;;;;;7.15;4.03;;;;;;;-0.38;57.75;98454.44;4915041;29;20032;-76
2021/01/28 04:53:33;;;;;;;10.98;5.15;;;;;;;-0.37;57.39;98473.59;4904725;29;20043;-75
2021/01/28 04:56:01;;;;;;;;;;;;;;;-0.37;58.10;98476.22;4912521;29;20040;-76
2021/01/28 04:58:27;;;;;;;8.23;4.82;;;;;;;-0.39;58.00;98483.53;4899392;29;19912;-77
2021/01/28 05:00:53;;;;;;;7.20;4.22;;;;;;;-0.41;57.99;98481.13;4901938;29;21518;-74
2021/01/28 05:03:31;;;;;;;9.93;4.75;;;;;;;-0.38;57.78;98478.06;4887619;29;20057;-79
2021/01/28 05:06:00;;;;;;;12.20;5.93;;;;;;;-0.40;58.25;98477.47;4883684;29;20065;-78
2021/01/28 05:08:25;;;;;;;11.48;4.20;;;;;;;-0.38;57.44;98483.31;4873853;29;20625;-78
2021/01/28 05:10:53;;;;;;;7.90;4.85;;;;;;;-0.38;57.82;98483.31;4862124;29;20054;-78
2021/01/28 05:13:26;;;;;;;8.80;4.28;;;;;;;-0.37;58.13;98482.28;4901802;29;20032;-78
2021/01/28 05:15:52;;;;;;;9.65;5.45;;;;;;;-0.36;57.68;98485.72;4880172;29;20088;-81
2021/01/28 05:18:36;;;;;;;10.07;5.32;;;;;;;-0.38;57.84;98485.13;4880184;29;20028;-78
2021/01/28 05:21:19;;;;;;;10.10;4.90;;;;;;;-0.42;57.84;98481.34;4891290;29;20035;-78
2021/01/28 05:23:45;;;;;;;6.10;4.07;;;;;;;-0.41;57.64;98485.59;4880006;29;20025;-79
2021/01/28 05:26:31;;;;;;;8.70;4.57;;;;;;;-0.49;57.44;98484.84;4880286;29;20113;-77
2021/01/28 05:29:22;;;;;;;6.57;4.05;;;;;;;-0.53;57.58;98480.25;4873229;29;20383;-77
2021/01/28 05:31:49;;;;;;;7.40;4.10;;;;;;;-0.51;57.20;98486.09;4893509;29;20025;-78
2021/01/28 05:34:38;;;;;;;9.33;4.73;;;;;;;-0.54;57.42;98484.69;4879891;29;20051;-77
2021/01/28 05:37:07;;;;;;;10.80;6.45;;;;;;;-0.56;56.81;98497.25;4882189;29;20033;-80
2021/01/28 05:39:36;;;;;;;11.57;4.80;;;;;;;-0.57;57.24;98493.00;4860913;29;20124;-80
2021/01/28 05:42:13;;;;;;;;;;;;;;;-0.59;57.60;98496.88;4877547;29;20500;-79
2021/01/28 05:44:41;;;;;;;16.57;7.07;;;;;;;-0.60;57.38;98500.50;4906149;29;20381;-79
2021/01/28 05:47:12;;;;;;;10.40;5.50;;;;;;;-0.61;57.14;98504.97;4879312;29;20028;-78
2021/01/28 05:49:41;;;;;;;8.83;4.83;;;;;;;-0.63;57.18;98500.94;4879134;29;20021;-79
2021/01/28 05:52:28;;;;;;;9.50;4.83;;;;;;;-0.61;57.26;98506.78;4884544;29;20125;-79
2021/01/28 05:55:13;;;;;;;13.40;5.47;;;;;;;-0.61;57.20;98509.41;4894883;29;20095;-79
2021/01/28 05:58:01;;;;;;;7.67;5.10;;;;;;;-0.55;57.67;98511.97;4896274;29;20107;-79
2021/01/28 06:00:49;;;;;;;11.05;4.65;;;;;;;-0.47;57.46;98510.88;4888412;29;20545;-79
2021/01/28 06:03:14;;;;;;;10.23;5.03;;;;;;;-0.42;57.15;98512.88;4897915;29;20028;-80
2021/01/28 06:06:17;;;;;;;8.00;5.10;;;;;;;-0.30;57.34;98515.59;4899213;29;20029;-80
2021/01/28 06:09:00;;;;;;;17.63;7.28;;;;;;;-0.19;56.74;98514.84;4879455;29;20033;-80
2021/01/28 06:11:41;;;;;;;9.05;4.78;;;;;;;-0.08;56.48;98516.75;4861252;29;20036;-78
2021/01/28 06:14:25;;;;;;;7.87;5.30;;;;;;;0.03;56.60;98523.09;4881311;29;20442;-79
2021/01/28 06:17:22;;;;;;;8.43;4.78;;;;;;;0.14;55.58;98519.72;4899557;29;20035;-80
2021/01/28 06:20:13;;;;;;;13.98;5.38;;;;;;;0.21;55.15;98517.03;4867186;29;20494;-79
2021/01/28 06:23:06;;;;;;;6.93;4.45;;;;;;;0.32;55.83;98511.00;4881727;29;20052;-79
2021/01/28 06:25:58;;;;;;;9.32;4.30;;;;;;;0.44;54.62;98516.34;4879809;29;20036;-79
2021/01/28 06:28:53;;;;;;;7.93;4.35;;;;;;;0.50;54.50;98512.03;4879643;29;20107;-80
2021/01/28 06:31:52;;;;;;;9.30;5.20;;;;;;;0.58;54.30;98516.16;4882492;29;20025;-82
2021/01/28 06:34:42;;;;;;;7.57;4.40;;;;;;;0.61;54.12;98521.78;4883319;29;20044;-81
2021/01/28 06:37:26;;;;;;;8.48;5.35;;;;;;;0.65;54.19;98516.88;4886075;29;20111;-82
2021/01/28 06:39:54;;;;;;;7.53;4.15;;;;;;;0.72;53.65;98522.84;4907185;29;20052;-83
2021/01/28 06:42:25;;;;;;;9.02;4.93;;;;;;;0.76;54.29;98528.47;4902403;29;20046;-79
2021/01/28 06:44:55;;;;;;;7.07;4.15;;;;;;;0.74;53.65;98533.16;4889849;29;20494;-84
2021/01/28 06:47:46;;;;;;;8.73;4.85;;;;;;;0.80;53.90;98533.03;4887364;29;20102;-77
2021/01/28 06:50:26;;;;;;;8.90;4.68;;;;;;;0.87;53.94;98534.78;4880705;29;20033;-77
2021/01/28 06:53:04;;;;;;;8.02;4.40;;;;;;;0.94;53.97;98540.75;4882037;29;20052;-78
2021/01/28 06:56:11;;;;;;;8.27;4.70;;;;;;;1.05;53.85;98541.78;4895084;29;20028;-78
2021/01/28 06:58:49;;;;;;;6.22;4.00;;;;;;;1.07;53.61;98542.38;4900856;29;20036;-78
2021/01/28 07:01:14;;;;;;;7.50;4.43;;;;;;;1.18;53.96;98543.44;4892781;29;20040;-77
2021/01/28 07:04:02;;;;;;;6.20;4.70;;;;;;;1.26;53.06;98545.75;4899200;29;20528;-78
2021/01/28 07:06:41;;;;;;;10.47;5.13;;;;;;;1.36;53.32;98542.56;4883283;29;20032;-78
2021/01/28 07:09:19;;;;;;;6.93;4.05;;;;;;;1.45;52.56;98546.44;4882007;29;20119;-78
2021/01/28 07:11:45;;;;;;;9.05;5.15;;;;;;;1.57;52.83;98557.78;4898642;29;20032;-78
2021/01/28 07:14:15;;;;;;;6.78;4.28;;;;;;;1.67;52.78;98562.50;4889779;29;20491;-78
2021/01/28 07:16:43;;;;;;;7.25;4.50;;;;;;;1.77;51.80;98564.56;4901504;29;20036;-79
2021/01/28 07:19:44;;;;;;;7.10;4.30;;;;;;;1.89;51.74;98569.81;4887753;29;20080;-83
2021/01/28 07:22:29;;;;;;;9.10;4.72;;;;;;;1.99;51.47;98571.88;4878653;29;20406;-79
2021/01/28 07:25:39;;;;;;;9.55;4.60;;;;;;;2.05;51.22;98574.41;4869658;29;20057;-81
2021/01/28 07:28:30;;;;;;;8.35;4.85;;;;;;;2.09;51.14;98577.38;4881994;29;20036;-81
2021/01/28 07:31:19;;;;;;;8.80;4.75;;;;;;;2.11;50.00;98575.28;4886985;29;20104;-81
2021/01/28 07:34:05;;;;;;;7.03;4.43;;;;;;;2.12;50.66;98576.09;4877160;29;20052;-81
2021/01/28 07:39:00;;;;;;;;;;;;;;;2.14;50.87;98584.59;4866631;29;20042;-81
2021/01/28 07:41:40;;;;;;;10.38;5.53;;;;;;;2.17;50.29;98587.56;4859928;29;19926;-82
2021/01/28 07:44:24;;;;;;;9.25;5.05;;;;;;;2.22;49.61;98582.41;4845515;29;20026;-78
2021/01/28 07:50:22;;;;;;;8.52;5.50;;;;;;;2.21;50.57;98590.53;5413728;23;20087;-79
2021/01/28 07:52:49;;;;;;;8.57;4.15;;;;;;;2.21;50.47;98590.53;4901106;29;20047;-81
2021/01/28 07:58:50;;;;;;;9.57;5.22;;;;;;;2.30;49.60;98589.13;4909597;29;20048;-80
2021/01/28 08:01:57;;;;;;;8.00;4.63;;;;;;;2.34;50.16;98581.56;4911251;29;20024;-81
2021/01/28 08:12:06;;;;;;;13.43;4.63;;;;;;;2.37;49.88;98581.91;5259810;23;20089;-80
2021/01/28 08:14:35;;;;;;;13.82;5.45;;;;;;;2.41;50.06;98576.97;4898455;29;20032;-80
2021/01/28 08:19:49;;;;;;;6.95;4.80;;;;;;;2.51;49.62;98589.56;5359901;23;20061;-83
2021/01/28 08:23:02;;;;;;;5.93;4.65;;;;;;;2.63;49.54;98585.03;4866682;29;20085;-82
2021/01/28 08:25:59;;;;;;;10.10;4.90;;;;;;;2.70;49.74;98593.63;4948164;24;20120;-79
2021/01/28 08:28:31;;;;;;;7.53;5.28;;;;;;;2.80;50.13;98594.84;4846500;29;20086;-81
2021/01/28 08:31:25;;;;;;;8.40;4.38;;;;;;;2.90;49.21;98591.59;4849737;29;20025;-83
2021/01/28 08:34:04;;;;;;;8.50;4.75;;;;;;;2.94;49.32;98582.97;5240846;23;20195;-80
2021/01/28 08:36:44;;;;;;;6.80;4.45;;;;;;;3.06;49.15;98590.81;4872632;29;20027;-77
2021/01/28 08:39:17;;;;;;;8.23;4.80;;;;;;;3.14;49.33;98598.38;4889718;29;20111;-77
2021/01/28 08:41:45;;;;;;;8.07;4.57;;;;;;;3.25;48.93;98596.69;4876569;29;20486;-79
2021/01/28 08:44:15;;;;;;;8.38;4.80;;;;;;;3.32;48.59;98592.06;4877574;29;20028;-79
2021/01/28 08:47:09;;;;;;;9.60;5.07;;;;;;;3.41;49.33;98600.41;4884925;29;20047;-83
2021/01/28 08:49:37;;;;;;;7.70;4.93;;;;;;;3.48;48.72;98597.59;4907890;29;20035;-81
2021/01/28 08:52:37;;;;;;;8.95;4.93;;;;;;;3.51;48.30;98595.25;4902284;24;20072;-80
2021/01/28 08:55:41;;;;;;;6.72;4.65;;;;;;;3.63;49.60;98604.97;5179556;24;20104;-83
2021/01/28 09:25:41;;;;;;;7.38;5.25;;;;;;;3.84;48.97;98616.66;5624966;23;20068;-84
2021/01/28 09:28:40;;;;;;;7.30;4.45;;;;;;;3.79;48.78;98598.06;5083128;23;20037;-84
2021/01/28 09:42:09;;;;;;;6.95;4.22;;;;;;;4.09;48.79;98597.69;5293153;23;20043;31
2021/01/28 10:14:10;;;;;;;7.80;4.30;;;;;;;4.20;47.79;98590.69;5379722;23;20093;-79
2021/01/28 10:25:17;;;;;;;6.00;4.22;;;;;;;4.39;46.41;98580.59;5055747;23;20067;-80
2021/01/28 10:33:47;;;;;;;7.53;4.20;;;;;;;4.43;46.13;98578.25;5259773;23;20056;-82
2021/01/28 10:36:13;;;;;;;4.85;3.60;;;;;;;4.48;45.15;98583.63;4867434;29;20037;-82
2021/01/28 10:38:38;;;;;;;5.60;3.60;;;;;;;4.39;45.60;98574.50;4866220;29;20031;-82
2021/01/28 10:41:06;;;;;;;4.97;3.65;;;;;;;4.43;46.34;98567.66;4864875;29;20395;-82
2021/01/28 10:43:32;;;;;;;6.22;3.83;;;;;;;4.41;46.13;98570.56;4864831;29;20036;-82
2021/01/28 10:45:57;;;;;;;4.35;3.08;;;;;;;4.42;45.63;98558.09;4865381;29;20029;-82
2021/01/28 10:48:23;;;;;;;5.63;3.95;;;;;;;4.43;44.79;98571.13;4869687;29;20025;-82
2021/01/28 10:50:49;;;;;;;5.05;3.30;;;;;;;4.41;44.51;98569.78;4864021;29;20036;-82
2021/01/28 10:53:15;;;;;;;4.78;3.60;;;;;;;4.39;45.41;98574.50;4863495;29;20089;-81
2021/01/28 10:55:41;;;;;;;5.57;3.50;;;;;;;4.40;45.97;98571.59;4862579;29;20032;-82
2021/01/28 10:58:06;;;;;;;7.65;4.18;;;;;;;4.46;46.34;98567.97;4862384;29;20543;-81
2021/01/28 11:00:33;;;;;;;5.45;3.75;;;;;;;4.49;46.44;98564.84;4863068;29;20506;-81
2021/01/28 11:02:59;;;;;;;5.60;4.43;;;;;;;4.58;45.86;98575.00;4863640;29;20021;-80
2021/01/28 11:05:28;;;;;;;5.28;3.65;;;;;;;4.61;45.66;98571.84;4864042;29;20132;-80
2021/01/28 11:07:54;;;;;;;7.60;4.47;;;;;;;4.67;45.89;98580.66;4864136;29;20133;-80
2021/01/28 11:10:23;;;;;;;6.65;4.30;;;;;;;4.69;46.48;98565.28;4880522;29;20180;-80
2021/01/28 11:12:48;;;;;;;8.60;5.03;;;;;;;4.65;45.02;98565.81;4863514;29;20390;-80
2021/01/28 11:15:14;;;;;;;7.82;4.72;;;;;;;4.71;45.97;98571.97;4862505;29;20029;-80
2021/01/28 11:17:39;;;;;;;5.70;3.97;;;;;;;4.72;45.52;98565.59;4860984;29;20029;-80
2021/01/28 11:20:06;;;;;;;7.57;4.35;;;;;;;4.77;45.79;98565.66;4862812;29;20124;-80
2021/01/28 11:22:31;;;;;;;5.95;3.90;;;;;;;4.82;46.28;98564.91;4863939;29;20446;-80
2021/01/28 11:24:57;;;;;;;5.70;4.05;;;;;;;4.83;45.83;98558.56;4863523;29;20033;-81
2021/01/28 11:27:22;;;;;;;6.72;4.30;;;;;;;4.86;45.15;98555.41;4863833;29;20089;-80
2021/01/28 11:29:48;;;;;;;8.38;3.92;;;;;;;4.89;45.14;98552.25;4860508;29;20036;-81
2021/01/28 11:32:17;;;;;;;4.90;3.65;;;;;;;4.90;45.11;98551.19;4844889;29;20061;-81
2021/01/28 11:34:42;;;;;;;9.55;3.75;;;;;;;4.90;44.50;98553.06;4845138;29;20037;-80
2021/01/28 11:37:08;;;;;;;5.20;3.45;;;;;;;4.91;44.69;98554.66;4844798;29;20022;-78
2021/01/28 11:39:33;;;;;;;7.90;4.15;;;;;;;4.94;44.61;98546.19;4849051;29;20112;-82
2021/01/28 11:41:59;;;;;;;5.18;3.92;;;;;;;4.97;44.41;98553.66;4868213;29;20478;-81
2021/01/28 11:44:24;;;;;;;5.57;3.22;;;;;;;4.94;43.79;98551.50;4863341;29;20032;-81
2021/01/28 11:46:49;;;;;;;4.30;3.67;;;;;;;4.94;44.07;98547.03;4866604;29;20040;-82
2021/01/28 11:49:15;;;;;;;4.07;2.38;;;;;;;4.99;44.04;98545.47;4866846;29;20037;-82
2021/01/28 11:51:40;;;;;;;4.28;3.17;;;;;;;5.03;43.75;98542.06;4864555;29;20119;-79
2021/01/28 11:54:06;;;;;;;4.70;3.35;;;;;;;5.04;44.00;98533.06;4873049;29;20173;-82
2021/01/28 11:56:31;;;;;;;5.28;3.30;;;;;;;5.12;44.10;98537.88;4863413;29;20116;-81
2021/01/28 11:58:56;;;;;;;5.22;3.50;;;;;;;5.14;43.24;98537.66;4863250;29;20103;-81
2021/01/28 12:01:22;;;;;;;6.25;3.50;;;;;;;5.14;44.04;98545.59;4861682;29;20509;-81
2021/01/28 12:03:47;;;;;;;7.20;3.92;;;;;;;5.16;43.92;98551.44;4865151;29;20024;-79
2021/01/28 12:06:18;;;;;;;3.97;2.97;;;;;;;5.13;42.72;98544.78;4862893;29;20057;-80
2021/01/28 12:08:43;;;;;;;5.30;3.03;;;;;;;5.14;43.19;98553.56;4868128;29;20093;-80
2021/01/28 12:11:09;;;;;;;4.95;3.13;;;;;;;5.14;43.41;98548.25;4862233;29;20029;-79
2021/01/28 12:13:34;;;;;;;5.70;3.22;;;;;;;5.12;42.69;98545.03;4862209;29;20025;-79
2021/01/28 12:16:01;;;;;;;3.95;3.05;;;;;;;5.10;42.41;98540.00;4860997;29;20027;-78
2021/01/28 12:18:27;;;;;;;4.88;3.05;;;;;;;5.08;42.91;98534.16;4861948;29;20032;-80
2021/01/28 12:20:52;;;;;;;5.78;3.38;;;;;;;5.11;43.20;98541.59;4856848;29;20030;-80
2021/01/28 12:23:17;;;;;;;6.03;3.67;;;;;;;5.11;43.23;98540.78;4850174;29;20021;-80
2021/01/28 12:25:43;;;;;;;5.45;3.30;;;;;;;5.11;42.79;98538.13;4861066;29;20017;-80
2021/01/28 12:28:09;;;;;;;6.05;3.35;;;;;;;5.15;43.99;98541.09;4861392;29;20025;-81
2021/01/28 12:30:34;;;;;;;6.80;4.18;;;;;;;5.12;43.92;98543.19;4860847;29;20040;-80
2021/01/28 12:33:00;;;;;;;6.07;3.88;;;;;;;5.13;43.67;98538.69;4860218;29;20514;-80
2021/01/28 12:35:25;;;;;;;5.78;3.63;;;;;;;5.16;43.16;98540.81;4862594;29;20057;-80
2021/01/28 12:37:51;;;;;;;7.10;3.55;;;;;;;5.17;44.15;98545.09;4883562;29;20084;-79
2021/01/28 12:40:18;;;;;;;5.93;3.00;;;;;;;5.17;43.77;98539.00;4847899;29;20558;-80
2021/01/28 12:42:44;;;;;;;4.38;3.28;;;;;;;5.13;44.01;98541.34;4856464;29;20146;-80
2021/01/28 12:45:10;;;;;;;6.10;3.40;;;;;;;5.16;44.01;98534.72;4842162;29;20105;-80
2021/01/28 12:47:35;;;;;;;6.32;3.67;;;;;;;5.17;43.94;98539.78;4859008;29;20056;-76
2021/01/28 12:50:03;;;;;;;6.22;3.50;;;;;;;5.13;43.14;98536.84;4880099;29;20609;-80
2021/01/28 12:52:28;;;;;;;5.97;4.10;;;;;;;5.17;43.31;98537.13;4857454;29;20180;-80
2021/01/28 12:54:53;;;;;;;5.32;4.10;;;;;;;5.23;43.93;98546.72;4861049;29;20123;-81
2021/01/28 12:57:19;;;;;;;4.68;3.65;;;;;;;5.26;43.18;98532.97;4870798;29;20032;-80
2021/01/28 12:59:45;;;;;;;3.70;3.17;;;;;;;5.30;43.41;98538.56;4895704;29;20172;-80
2021/01/28 13:02:12;;;;;;;5.03;3.10;;;;;;;5.32;42.63;98533.00;4879974;29;20029;-80
2021/01/28 13:04:37;;;;;;;3.60;3.13;;;;;;;5.37;43.16;98546.28;4858475;29;20037;-79
2021/01/28 13:07:02;;;;;;;7.25;4.10;;;;;;;5.38;42.59;98540.75;4857251;29;20210;-80
2021/01/28 13:09:29;;;;;;;5.25;3.53;;;;;;;5.39;43.01;98542.34;4862714;29;20029;-79
2021/01/28 13:11:54;;;;;;;7.25;3.97;;;;;;;5.38;42.79;98539.94;4859866;29;20033;-79
2021/01/28 13:14:20;;;;;;;5.38;3.95;;;;;;;5.36;42.66;98548.16;4860256;29;20087;-79
2021/01/28 13:16:45;;;;;;;4.97;3.25;;;;;;;5.34;42.72;98547.59;4858513;29;20116;-79
2021/01/28 13:19:10;;;;;;;5.30;3.40;;;;;;;5.33;42.44;98550.50;4862244;29;20037;-82
2021/01/28 13:21:36;;;;;;;5.05;3.45;;;;;;;5.25;42.64;98554.44;4877321;29;20025;-79
2021/01/28 13:24:01;;;;;;;4.35;3.47;;;;;;;5.21;43.04;98563.94;4861120;29;20033;-80
2021/01/28 13:26:27;;;;;;;5.32;3.63;;;;;;;5.15;42.71;98559.63;4860562;29;20525;-81
2021/01/28 13:28:52;;;;;;;5.95;3.63;;;;;;;5.12;43.06;98568.91;4861118;29;20403;-82
2021/01/28 13:31:17;;;;;;;9.43;4.65;;;;;;;5.05;43.29;98565.66;4859731;29;20081;-81
2021/01/28 13:33:43;;;;;;;5.25;3.42;;;;;;;4.96;43.55;98574.03;4860076;29;20029;-82
2021/01/28 13:36:09;;;;;;;6.68;4.22;;;;;;;4.89;44.03;98570.78;4860365;29;20029;-81
2021/01/28 13:38:34;;;;;;;7.00;3.90;;;;;;;4.86;44.39;98578.44;4861456;29;20052;-80
2021/01/28 13:41:00;;;;;;;6.90;4.93;;;;;;;4.77;44.71;98568.31;4866720;29;20088;-81